CW2074 Weather Reports


Display with metric or nautical units.
time (UTC)temp
F
wind
direction
speed
MPH
gust
MPH
rain 1hr
in
rain 24hr
in
rain mn
in
humidity
%
barometer
mb
20181213154624 45 276 0.0 0.0 0.00 0.00 0.00 79 1025.3
20181213153055 44 276 0.0 0.0 0.00 0.00 0.00 80 1025.5
20181213151542 43 276 0.0 0.0 0.00 0.00 0.00 80 1025.5
20181213144745 40 277 0.0 0.0 0.00 0.00 0.00 88 1025.2
20181213143026 38 277 0.0 0.0 0.00 0.00 0.00 91 1025.3
20181213140123 35 277 0.0 0.0 0.00 0.00 0.00 92 1025.8
20181213134619 34 277 0.0 0.0 0.00 0.00 0.00 92 1025.8
20181213133010 33 277 0.0 0.0 0.00 0.00 0.00 92 1025.7
20181213131618 33 277 0.0 0.0 0.00 0.00 0.00 92 1025.5
20181213130138 32 277 0.0 0.0 0.00 0.00 0.00 92 1025.1
20181213124700 32 277 0.0 0.0 0.00 0.00 0.00 92 1024.7
20181213123155 32 277 0.0 0.0 0.00 0.00 0.00 92 1024.7
20181213121629 32 277 0.0 0.0 0.00 0.00 0.00 92 1024.6
20181213120109 33 277 0.0 0.0 0.00 0.00 0.00 92 1024.5
20181213114625 33 277 0.0 0.0 0.00 0.00 0.00 92 1024.2
20181213113138 33 277 0.0 0.0 0.00 0.00 0.00 92 1024.3
20181213111627 33 277 0.0 0.0 0.00 0.00 0.00 92 1024.4
20181213110047 33 277 0.0 0.0 0.00 0.00 0.00 92 1024.3
20181213104559 33 277 0.0 0.0 0.00 0.00 0.00 92 1024.1
20181213103126 33 277 0.0 0.0 0.00 0.00 0.00 92 1024.0
20181213101700 33 277 0.0 0.0 0.00 0.00 0.00 92 1023.9
20181213100054 33 277 0.0 0.0 0.00 0.00 0.00 91 1023.9
20181213094602 33 277 0.0 0.0 0.00 0.00 0.00 91 1023.8
20181213093106 33 277 0.0 0.0 0.00 0.00 0.00 91 1023.6
20181213091608 33 277 0.0 0.0 0.00 0.00 0.00 91 1023.6
20181213090036 33 277 0.0 0.0 0.00 0.00 0.00 91 1023.6
20181213084614 33 277 0.0 0.0 0.00 0.00 0.00 91 1023.7
20181213083052 34 277 0.0 0.0 0.00 0.00 0.00 91 1023.5
20181213081611 33 277 0.0 0.0 0.00 0.00 0.00 92 1023.5
20181213080047 33 277 0.0 0.0 0.00 0.00 0.00 91 1023.6
20181213074535 33 277 0.0 0.0 0.00 0.00 0.00 90 1023.5
20181213073100 34 277 0.0 0.0 0.00 0.00 0.00 90 1023.3
20181213071547 34 277 0.0 0.0 0.00 0.00 0.00 90 1023.1
20181213070049 34 277 0.0 0.0 0.00 0.00 0.00 90 1023.2
20181213064539 34 277 0.0 0.0 0.00 0.00 0.00 90 1023.4
20181213063045 35 277 0.0 0.0 0.00 0.00 0.00 90 1023.3
20181213061654 35 277 0.0 0.0 0.00 0.00 0.00 90 1023.5
20181213060019 36 277 0.0 0.0 0.00 0.00 0.00 90 1023.5
20181213054523 36 277 0.0 0.0 0.00 0.00 0.00 90 1023.7
20181213053010 36 277 0.0 0.0 0.00 0.00 0.00 90 1023.7
20181213051533 36 277 0.0 0.0 0.00 0.00 0.00 90 1023.6
20181213050014 36 277 0.0 0.0 0.00 0.00 0.00 89 1023.6
20181213044511 36 277 0.0 0.0 0.00 0.00 0.00 89 1023.8
20181213043009 36 277 0.0 0.0 0.00 0.00 0.00 89 1023.8
20181213041514 36 277 0.0 0.0 0.00 0.00 0.00 88 1024.0
20181213040011 36 277 0.0 0.0 0.00 0.00 0.00 88 1024.0
20181213034511 36 277 0.0 0.0 0.00 0.00 0.00 88 1024.0
20181213033007 36 277 0.0 0.0 0.00 0.00 0.00 88 1024.1
20181213031505 36 277 0.0 0.0 0.00 0.00 0.00 87 1024.0
20181213030004 36 277 0.0 0.0 0.00 0.00 0.00 85 1024.0
20181213024504 37 277 0.0 0.0 0.00 0.00 0.00 84 1024.3
20181213023004 37 277 0.0 0.0 0.00 0.00 0.00 84 1024.3
20181213021503 38 277 0.0 0.0 0.00 0.00 0.00 83 1024.5
20181213020003 38 277 0.0 0.0 0.00 0.00 0.00 80 1024.2
20181213014504 39 277 0.0 0.0 0.00 0.00 0.00 79 1024.1
20181213011723 40 277 0.0 0.0 0.00 0.00 0.00 77 1023.8
20181213010217 40 277 0.0 0.0 0.00 0.00 0.00 76 1023.7
20181213004720 40 277 0.0 0.0 0.00 0.00 0.00 75 1023.7
20181213003137 41 277 0.0 0.0 0.00 0.00 0.00 71 1023.8
20181213001650 41 277 0.0 0.0 0.00 0.00 0.00 69 1023.6
20181213000145 42 277 0.0 0.0 0.00 0.00 0.00 69 1023.4
20181212234706 42 277 0.0 0.0 0.00 0.00 0.00 69 1023.3
20181212233202 43 277 0.0 0.0 0.00 0.00 0.00 64 1023.4
20181212231725 44 277 0.0 0.0 0.00 0.00 0.00 62 1023.3
20181212230136 45 277 0.0 0.0 0.00 0.00 0.00 60 1023.3
20181212224740 46 277 0.0 0.0 0.00 0.00 0.00 57 1023.3
20181212223138 47 277 0.0 0.0 0.00 0.00 0.00 55 1023.3
20181212221735 49 277 0.0 0.0 0.00 0.00 0.00 52 1022.9
20181212220113 50 277 0.0 1.0 0.00 0.00 0.00 50 1022.9
20181212214750 50 236 0.0 1.0 0.00 0.00 0.00 49 1022.7
20181212213121 51 234 0.0 1.0 0.00 0.00 0.00 48 1022.6
20181212211652 52 269 0.0 3.0 0.00 0.00 0.00 46 1022.4
20181212210206 52 192 0.0 6.0 0.00 0.00 0.00 46 1022.6
20181212204635 52 229 0.0 4.0 0.00 0.00 0.00 46 1022.7
20181212203145 52 229 0.0 2.0 0.00 0.00 0.00 48 1022.4
20181212201616 52 216 0.0 1.0 0.00 0.00 0.00 49 1022.3
20181212200159 52 202 0.0 4.0 0.00 0.00 0.00 50 1022.5
20181212194736 52 145 0.0 1.0 0.00 0.00 0.00 50 1022.5
20181212193147 52 244 1.0 4.0 0.00 0.00 0.00 49 1022.7
20181212191637 53 212 0.0 2.0 0.00 0.00 0.00 52 1022.5
20181212190219 52 130 0.0 1.0 0.00 0.00 0.00 52 1022.7
20181212184631 52 265 0.0 4.0 0.00 0.00 0.00 51 1022.5
20181212183140 52 241 0.0 5.0 0.00 0.00 0.00 52 1022.9
20181212181625 51 243 0.0 3.0 0.00 0.00 0.00 54 1022.9
20181212180057 51 290 0.0 0.0 0.00 0.00 0.00 53 1023.0
20181212174602 51 238 0.0 5.0 0.00 0.00 0.00 52 1023.2
20181212173051 50 244 0.0 8.0 0.00 0.00 0.00 51 1023.7
20181212171541 49 297 0.0 5.0 0.00 0.00 0.00 54 1023.9
20181212170042 48 273 0.0 4.0 0.00 0.00 0.00 56 1024.1
20181212164531 47 285 0.0 1.0 0.00 0.00 0.00 57 1024.3
20181212163029 47 243 0.0 4.0 0.00 0.00 0.00 60 1024.3
20181212161536 46 244 0.0 4.0 0.00 0.00 0.00 60 1024.5
20181212160055 45 234 0.0 2.0 0.00 0.00 0.00 61 1024.8